Flight Track Log - Related Links

Times and Time Zones

All times are in EDT time to prevent confusion due to time zone crossing. See the SWA3321 flight status page for this flight to view local times or setup timezone preferences in your user account.

Time Position Orientation Groundspeed Altitude Reporting Facility
EDT Latitude Longitude Course Direction KTS MPH feet Rate Location/Type
Wed 10:40:07 AM 41.8167 -87.7333 270° West 179 206 1,900  Level Chicago TRACON
Wed 10:40:55 AM 41.8167 -87.8000 270° West 242 278 3,800 2,611 Climbing Chicago TRACON
Wed 10:41:55 AM 41.7833 -87.8833 242° Southwest 248 285 6,600 2,416 Climbing Chicago TRACON
Wed 10:42:12 AM 41.7900 -87.9025 295° West 248 285 6,900 3,494 Climbing Chicago Center
Wed 10:43:14 AM 41.7919 -88.0094 271° West 244 281 11,200 2,537 Climbing Chicago Center
Wed 10:44:15 AM 41.7944 -88.1064 272° West 258 297 12,100 390 Climbing Chicago Center
Wed 10:45:17 AM 41.7936 -88.2025 269° West 261 300 12,000 -49 Descending Chicago Center
Wed 10:46:18 AM 41.7931 -88.2950 270° West 253 291 12,000 390 Level Chicago Center
Wed 10:47:20 AM 41.7917 -88.3886 269° West 254 292 12,800 1,694 Climbing Chicago Center
Wed 10:48:22 AM 41.7883 -88.4850 267° West 260 299 15,500 2,293 Climbing Chicago Center
Wed 10:49:23 AM 41.7814 -88.6178 266° West 302 348 17,500 1,951 Climbing Chicago Center
Wed 10:50:25 AM 41.7792 -88.7428 269° West 334 384 19,500 2,146 Climbing Chicago Center
Wed 10:51:26 AM 41.7808 -88.8719 271° West 346 398 21,900 2,244 Climbing Chicago Center
Wed 10:52:28 AM 41.7850 -89.0058 272° West 359 413 24,100 2,000 Climbing Chicago Center
Wed 10:53:29 AM 41.7794 -89.1394 267° West 362 417 26,000 1,610 Climbing Chicago Center
Wed 10:54:31 AM 41.7708 -89.2797 265° West 377 434 27,400 1,610 Climbing Chicago Center
Wed 10:55:32 AM 41.7592 -89.4525 265° West 390 449 29,300 1,659 Climbing Chicago Center
Wed 10:56:34 AM 41.7494 -89.5978 265° West 397 457 30,800 1,463 Climbing Chicago Center
Wed 10:57:35 AM 41.7358 -89.7511 263° West 412 474 32,300 1,463 Climbing Chicago Center
Wed 10:58:37 AM 41.7256 -89.8994 265° West 406 467 33,800 1,415 Climbing Chicago Center
Wed 10:59:38 AM 41.7142 -90.0483 264° West 404 465 35,200 1,073 Climbing Chicago Center
Wed 11:00:40 AM 41.7028 -90.1956 264° West 401 461 36,000 387 Climbing Chicago Center
Wed 11:01:42 AM 41.6903 -90.3450 264° West 404 465 36,000  Level Chicago Center
Wed 11:02:43 AM 41.6789 -90.4908 264° West 398 458 36,000  Level Chicago Center
Wed 11:03:45 AM 41.6653 -90.6619 264° West 396 456 36,000  Level Chicago Center
Wed 11:04:46 AM 41.6531 -90.8072 264° West 394 453 36,000  Level Chicago Center
Wed 11:05:48 AM 41.6408 -90.9497 263° West 390 449 36,000  Level Chicago Center
Wed 11:06:49 AM 41.6292 -91.0914 264° West 387 445 36,000  Level Chicago Center
Wed 11:07:51 AM 41.6156 -91.2342 263° West 387 445 36,000  Level Chicago Center
Wed 11:08:52 AM 41.6036 -91.3797 264° West 393 452 36,000  Level Chicago Center
Wed 11:09:54 AM 41.5881 -91.5519 263° West 393 452 36,000  Level Chicago Center
Wed 11:10:55 AM 41.5756 -91.6944 263° West 389 448 36,000  Level Chicago Center
Wed 11:11:57 AM 41.5611 -91.8378 262° West 390 449 36,000  Level Chicago Center
Wed 11:12:58 AM 41.5489 -91.9806 264° West 389 448 36,000  Level Chicago Center
Wed 11:14:00 AM 41.5344 -92.1233 262° West 390 449 36,000  Level Chicago Center
Wed 11:15:01 AM 41.5203 -92.2706 263° West 396 456 36,000 -293 Level Chicago Center
Wed 11:16:03 AM 41.5064 -92.4136 263° West 393 452 35,400 -871 Descending Chicago Center
Wed 11:17:05 AM 41.4906 -92.5803 263° West 380 437 34,200 -1,073 Descending Chicago Center
Wed 11:18:06 AM 41.4753 -92.7239 262° West 384 442 33,200 -976 Descending Chicago Center
Wed 11:19:08 AM 41.4608 -92.8653 262° West 388 447 32,200 -585 Descending Chicago Center
Wed 11:20:09 AM 41.4464 -93.0078 262° West 391 450 32,000 -92 Descending Chicago Center
Wed 11:21:18 AM 41.4281 -93.1825 262° West 392 451 32,000  Level Minneapolis Center
Wed 11:22:20 AM 41.4131 -93.3256 262° West 395 455 32,000  Level Minneapolis Center
Wed 11:23:21 AM 41.3972 -93.4686 262° West 395 455 32,000  Level Minneapolis Center
Wed 11:24:23 AM 41.3831 -93.6083 262° West 390 449 32,000  Level Minneapolis Center
Wed 11:25:24 AM 41.3683 -93.7528 262° West 394 453 32,000  Level Minneapolis Center
Wed 11:26:26 AM 41.3486 -93.9289 262° West 403 464 32,000  Level Minneapolis Center
Wed 11:27:28 AM 41.3317 -94.0736 261° West 400 460 32,000  Level Minneapolis Center
Wed 11:28:29 AM 41.3167 -94.2169 262° West 397 457 32,000  Level Minneapolis Center
Wed 11:29:31 AM 41.2994 -94.3528 260° West 396 456 32,000  Level Minneapolis Center
Wed 11:30:32 AM 41.2836 -94.4967 262° West 394 453 32,000  Level Minneapolis Center
Wed 11:31:34 AM 41.2628 -94.6672 261° West 390 449 32,000  Level Minneapolis Center
Wed 11:32:35 AM 41.2464 -94.8089 261° West 388 447 32,000  Level Minneapolis Center
Wed 11:33:37 AM 41.2294 -94.9508 261° West 388 447 32,000  Level Minneapolis Center
Wed 11:34:38 AM 41.2117 -95.0914 261° West 387 445 32,000  Level Minneapolis Center
Wed 11:35:40 AM 41.1939 -95.2342 261° West 388 447 32,000  Level Minneapolis Center
Wed 11:36:42 AM 41.1761 -95.3797 261° West 397 457 32,000  Level Minneapolis Center
Wed 11:37:43 AM 41.1572 -95.5236 260° West 396 456 32,000  Level Minneapolis Center
Wed 11:38:45 AM 41.1364 -95.6897 261° West 398 458 32,000  Level Minneapolis Center
Wed 11:39:46 AM 41.1206 -95.8161 261° West 399 459 32,000  Level Minneapolis Center
Wed 11:40:48 AM 41.1003 -95.9619 260° West 399 459 32,000  Level Minneapolis Center
Wed 11:41:49 AM 41.0819 -96.1094 261° West 400 460 32,000  Level Minneapolis Center
Wed 11:42:51 AM 41.0583 -96.2858 260° West 402 463 32,000  Level Minneapolis Center
Wed 11:43:52 AM 41.0392 -96.4342 260° West 405 466 32,000  Level Minneapolis Center
Wed 11:44:54 AM 41.0186 -96.5819 260° West 406 467 32,000  Level Minneapolis Center
Wed 11:45:55 AM 40.9986 -96.7308 260° West 408 470 32,000  Level Minneapolis Center
Wed 11:46:57 AM 40.9778 -96.8781 259° West 407 468 32,000  Level Minneapolis Center
Wed 11:47:59 AM 40.9575 -97.0256 260° West 408 470 32,000  Level Minneapolis Center
Wed 11:49:00 AM 40.9367 -97.1722 259° West 407 468 32,000  Level Minneapolis Center
Wed 11:50:02 AM 40.9167 -97.3194 260° West 407 468 32,000  Level Minneapolis Center
Wed 11:51:03 AM 40.8928 -97.4794 259° West 405 466 32,000  Level Minneapolis Center
Wed 11:52:05 AM 40.8714 -97.6267 259° West 405 466 32,000  Level Minneapolis Center
Wed 11:53:07 AM 40.8500 -97.7731 259° West 405 466 32,000  Level Minneapolis Center
Wed 11:54:08 AM 40.8286 -97.9189 259° West 405 466 32,000  Level Minneapolis Center
Wed 11:55:10 AM 40.8069 -98.0642 259° West 403 464 32,000  Level Minneapolis Center
Wed 11:56:12 AM 40.7797 -98.2389 258° West 402 463 32,000  Level Minneapolis Center
Wed 11:57:13 AM 40.7589 -98.3850 259° West 403 464 32,000  Level Minneapolis Center
Wed 11:58:15 AM 40.7358 -98.5306 258° West 403 464 32,000  Level Minneapolis Center
Wed 11:59:17 AM 40.7133 -98.6756 258° West 401 461 32,000  Level Minneapolis Center
Wed 12:00:18 PM 40.6919 -98.8200 259° West 399 459 32,000  Level Minneapolis Center
Wed 12:01:20 PM 40.6686 -98.9625 258° West 397 457 32,000  Level Minneapolis Center
Wed 12:02:22 PM 40.6469 -99.1056 259° West 396 456 32,000  Level Minneapolis Center
Wed 12:02:56 PM 40.6333 -99.1914 258° West 397 457 32,000  Level Denver Center
Wed 12:03:58 PM 40.6092 -99.3331 257° West 396 456 32,000  Level Denver Center
Wed 12:05:00 PM 40.5861 -99.4769 258° West 399 459 32,000  Level Denver Center
Wed 12:06:02 PM 40.5625 -99.6211 258° West 402 463 32,000  Level Denver Center
Wed 12:07:04 PM 40.5383 -99.7664 258° West 406 467 32,000  Level Denver Center
Wed 12:08:06 PM 40.5131 -99.9208 258° West 408 470 32,000  Level Denver Center
Wed 12:09:07 PM 40.4853 -100.0803 257° West 402 463 32,000  Level Denver Center
Wed 12:10:09 PM 40.4631 -100.2194 258° West 405 466 32,000  Level Denver Center
Wed 12:11:11 PM 40.4344 -100.3792 257° West 403 464 32,000  Level Denver Center
Wed 12:12:13 PM 40.4131 -100.5142 258° West 395 455 32,000  Level Denver Center
Wed 12:13:15 PM 40.3844 -100.6717 257° West 395 455 32,000  Level Denver Center
Wed 12:14:17 PM 40.3611 -100.8069 257° West 396 456 32,000  Level Denver Center
Wed 12:15:19 PM 40.3369 -100.9439 257° West 400 460 32,000  Level Denver Center
Wed 12:16:21 PM 40.3081 -101.1031 257° West 402 463 32,000  Level Denver Center
Wed 12:17:23 PM 40.2842 -101.2394 257° West 402 463 32,000  Level Denver Center
Wed 12:18:25 PM 40.2553 -101.4014 257° West 407 468 32,000  Level Denver Center
Wed 12:19:27 PM 40.2297 -101.5378 256° West 405 466 32,000  Level Denver Center
Wed 12:20:29 PM 40.2006 -101.6978 257° West 404 465 32,000  Level Denver Center
Wed 12:21:31 PM 40.1761 -101.8356 257° West 407 468 32,000  Level Denver Center
Wed 12:22:33 PM 40.1456 -101.9956 256° West 407 468 32,000  Level Denver Center
Wed 12:23:35 PM 40.1189 -102.1347 256° West 412 474 32,000  Level Denver Center
Wed 12:24:37 PM 40.0936 -102.2753 257° West 415 478 32,000  Level Denver Center
Wed 12:25:39 PM 40.0625 -102.4389 256° West 417 480 32,000  Level Denver Center
Wed 12:26:41 PM 40.0339 -102.5811 255° West 422 486 32,000  Level Denver Center
Wed 12:27:43 PM 39.9675 -102.7231 239° Southwest 416 479 32,000 532 Level Denver Center
Wed 12:28:45 PM 39.9067 -102.8614 240° Southwest 433 498 33,100 1,210 Climbing Denver Center
Wed 12:29:47 PM 39.8522 -103.0039 244° Southwest 436 502 34,500 1,210 Climbing Denver Center
Wed 12:30:49 PM 39.8222 -103.1606 256° West 443 510 35,600 1,113 Climbing Denver Center
Wed 12:31:51 PM 39.7919 -103.3211 256° West 454 522 36,800 1,161 Climbing Denver Center
Wed 12:32:53 PM 39.7569 -103.5044 256° West 444 511 38,000 581 Climbing Denver Center
Wed 12:33:55 PM 39.7275 -103.6603 256° West 441 507 38,000  Level Denver Center
Wed 12:34:57 PM 39.6972 -103.8183 256° West 447 514 38,000  Level Denver Center
Wed 12:35:59 PM 39.6678 -103.9725 256° West 438 504 38,000  Level Denver Center
Wed 12:37:01 PM 39.6381 -104.1283 256° West 441 507 38,000  Level Denver Center
Wed 12:38:03 PM 39.6067 -104.2808 255° West 433 498 38,000  Level Denver Center
Wed 12:39:05 PM 39.5764 -104.4364 256° West 438 504 38,000  Level Denver Center
Wed 12:40:07 PM 39.5458 -104.5883 255° West 429 494 38,000  Level Denver Center
Wed 12:41:09 PM 39.5114 -104.7464 254° West 439 505 38,000  Level Denver Center
Wed 12:42:11 PM 39.4803 -104.9022 256° West 438 504 38,000  Level Denver Center
Wed 12:43:14 PM 39.4431 -105.0836 255° West 441 507 38,000  Level Denver Center
Wed 12:44:16 PM 39.4106 -105.2367 255° West 436 502 38,000  Level Denver Center
Wed 12:45:18 PM 39.3786 -105.3914 255° West 443 510 38,000  Level Denver Center
Wed 12:46:20 PM 39.3469 -105.5453 255° West 435 501 38,000  Level Denver Center
Wed 12:47:22 PM 39.3139 -105.7028 255° West 448 516 38,000  Level Denver Center
Wed 12:48:24 PM 39.2794 -105.8586 254° West 448 516 38,000  Level Denver Center
Wed 12:49:26 PM 39.2467 -106.0164 255° West 449 517 38,000  Level Denver Center
Wed 12:50:28 PM 39.2122 -106.1772 255° West 452 520 38,000  Level Denver Center
Wed 12:51:30 PM 39.1742 -106.3525 254° West 454 522 38,000  Level Denver Center
Wed 12:52:32 PM 39.1403 -106.5031 254° West 456 525 38,000  Level Denver Center
Wed 12:53:34 PM 39.1019 -106.6786 254° West 458 527 38,000  Level Denver Center
Wed 12:54:36 PM 39.0678 -106.8294 254° West 459 528 38,000  Level Denver Center
Wed 12:55:38 PM 39.0283 -107.0072 254° West 461 531 38,000  Level Denver Center
Wed 12:56:40 PM 38.9928 -107.1589 253° West 462 532 38,000  Level Denver Center
Wed 12:57:42 PM 38.9514 -107.3378 253° West 465 535 38,000  Level Denver Center
Wed 12:58:44 PM 38.9164 -107.4908 254° West 465 535 38,000  Level Denver Center
Wed 12:59:46 PM 38.8819 -107.6406 254° West 459 528 38,000  Level Denver Center
Wed 01:00:48 PM 38.8411 -107.8169 253° West 460 529 38,000  Level Denver Center
Wed 01:01:51 PM 38.8061 -107.9689 254° West 463 533 38,000  Level Denver Center
Wed 01:02:52 PM 38.7658 -108.1419 253° West 454 522 38,000  Level Denver Center
Wed 01:03:54 PM 38.7297 -108.2914 253° West 455 524 38,000  Level Denver Center
Wed 01:04:56 PM 38.6881 -108.4672 253° West 461 531 38,000  Level Denver Center
Wed 01:05:59 PM 38.6525 -108.6161 253° West 457 526 38,000  Level Denver Center
Wed 01:07:01 PM 38.6103 -108.7892 253° West 455 524 38,000  Level Denver Center
Wed 01:08:03 PM 38.5736 -108.9386 253° West 460 529 38,000  Level Denver Center
Wed 01:09:05 PM 38.5361 -109.0869 252° West 459 528 38,000  Level Denver Center
Wed 01:10:07 PM 38.4931 -109.2608 252° West 459 528 38,000  Level Denver Center
Wed 01:11:09 PM 38.4556 -109.4122 252° West 464 534 38,000  Level Denver Center
Wed 01:12:11 PM 38.4111 -109.5869 252° West 463 533 38,000  Level Denver Center
Wed 01:13:13 PM 38.3731 -109.7386 252° West 468 539 38,000  Level Denver Center
Wed 01:14:15 PM 38.3286 -109.9158 252° West 470 541 38,000  Level Denver Center
Wed 01:15:17 PM 38.2781 -110.0650 247° West 484 557 38,000 -194 Level Denver Center
Wed 01:16:19 PM 38.2081 -110.2367 243° Southwest 489 563 37,600 -629 Descending Denver Center
Wed 01:17:21 PM 38.1503 -110.3831 243° Southwest 485 558 36,700 -821 Descending Denver Center
Wed 01:18:16 PM 38.0917 -110.5319 243° Southwest 488 562 36,000 -359 Descending Salt Lake Center
Wed 01:19:18 PM 38.0314 -110.6806 243° Southwest 493 567 36,000  Level Salt Lake Center
Wed 01:20:19 PM 37.9617 -110.8528 243° Southwest 491 565 36,000  Level Salt Lake Center
Wed 01:21:20 PM 37.8992 -111.0061 243° Southwest 487 560 36,000  Level Salt Lake Center
Wed 01:22:22 PM 37.8378 -111.1575 243° Southwest 485 558 36,000 -439 Level Salt Lake Center
Wed 01:23:23 PM 37.7761 -111.3069 242° Southwest 482 555 35,100 -934 Descending Salt Lake Center
Wed 01:24:24 PM 37.7139 -111.4569 242° Southwest 483 556 34,100 -927 Descending Salt Lake Center
Wed 01:25:26 PM 37.6508 -111.6083 242° Southwest 486 559 33,200 -976 Descending Salt Lake Center
Wed 01:26:27 PM 37.5872 -111.7572 242° Southwest 485 558 32,100 -585 Descending Salt Lake Center
Wed 01:27:29 PM 37.5272 -111.9028 243° Southwest 473 544 32,000 -49 Descending Salt Lake Center
Wed 01:28:30 PM 37.4675 -112.0447 242° Southwest 462 532 32,000  Level Salt Lake Center
Wed 01:29:03 PM 37.4303 -112.1283 241° Southwest 454 522 32,000  Level Los Angeles Center
Wed 01:29:32 PM 37.4072 -112.1858 243° Southwest 459 528 32,000 -290 Level Salt Lake Center
Wed 01:30:05 PM 37.3706 -112.2706 241° Southwest 455 524 31,700 -821 Descending Los Angeles Center
Wed 01:31:07 PM 37.3114 -112.4119 242° Southwest 454 522 30,700 -1,113 Descending Los Angeles Center
Wed 01:32:09 PM 37.2367 -112.5817 241° Southwest 459 528 29,400 -1,146 Descending Los Angeles Center
Wed 01:32:36 PM 37.2128 -112.6386 242° Southwest 459 528 29,000 -955 Descending Salt Lake Center
Wed 01:33:37 PM 37.1519 -112.7767 241° Southwest 453 521 28,000 -980 Descending Salt Lake Center
Wed 01:34:14 PM 37.1178 -112.8575 242° Southwest 445 512 27,400 -970 Descending Los Angeles Center
Wed 01:35:16 PM 37.0597 -112.9881 241° Southwest 433 498 26,400 -968 Descending Los Angeles Center
Wed 01:36:18 PM 37.0042 -113.1161 242° Southwest 422 486 25,400 -968 Descending Los Angeles Center
Wed 01:37:20 PM 36.9494 -113.2403 241° Southwest 411 473 24,400 -677 Descending Los Angeles Center
Wed 01:38:22 PM 36.8967 -113.3625 242° Southwest 403 464 24,000 -194 Descending Los Angeles Center
Wed 01:39:24 PM 36.8317 -113.5058 240° Southwest 396 456 24,000  Level Los Angeles Center
Wed 01:40:26 PM 36.7783 -113.6278 241° Southwest 399 459 24,000 -484 Level Los Angeles Center
Wed 01:41:28 PM 36.7244 -113.7497 241° Southwest 402 463 23,000 -1,355 Descending Los Angeles Center
Wed 01:42:30 PM 36.6722 -113.8664 241° Southwest 390 449 21,200 -1,694 Descending Los Angeles Center
Wed 01:43:32 PM 36.6219 -113.9786 241° Southwest 375 432 19,500 -1,632 Descending Los Angeles Center
Wed 01:44:35 PM 36.5694 -114.0939 240° Southwest 380 437 17,800 -1,776 Descending Los Angeles Center
Wed 01:45:37 PM 36.5106 -114.2261 241° Southwest 379 436 15,800 -1,930 Descending Los Angeles Center
Wed 01:46:30 PM 36.4650 -114.3325 242° Southwest 372 428 14,100 -1,833 Descending Los Angeles Center
Wed 01:47:25 PM 36.4183 -114.4342 240° Southwest 363 418 12,500 -1,606 Descending Los Angeles Center
Wed 01:47:41 PM 36.4089 -114.4469 227° Southwest 362 417 12,200 -885 Descending Los Angeles Center
Wed 01:48:26 PM 36.3717 -114.5358 243° Southwest 341 392 11,600 -774 Descending Los Angeles Center
Wed 01:48:43 PM 36.3631 -114.5500 233° Southwest 345 397 11,400 -1,100 Descending Los Angeles Center
Wed 01:49:26 PM 36.3231 -114.6378 241° Southwest 328 377 10,500 -968 Descending Los Angeles Center
Wed 01:49:45 PM 36.3175 -114.6461 230° Southwest 328 377 10,400 -984 Descending Los Angeles Center
Wed 01:50:27 PM 36.2789 -114.7328 241° Southwest 317 365 9,500 -1,161 Descending Los Angeles Center
Wed 01:50:47 PM 36.2647 -114.7592 236° Southwest 316 364 9,200 -985 Descending Los Angeles Center
Wed 01:51:34 PM 36.2322 -114.8339 242° Southwest 302 348 8,400 -968 Descending Los Angeles Center
Wed 01:51:49 PM 36.2233 -114.8492 234° Southwest 303 349 8,200 -393 Descending Los Angeles Center
Wed 01:52:35 PM 36.1889 -114.9231 240° Southwest 294 338 8,000 -194 Descending Los Angeles Center
Wed 01:52:51 PM 36.1817 -114.9364 236° Southwest 295 339 8,000  Level Los Angeles Center
Wed 01:53:42 PM 36.1442 -115.0153 240° Southwest 288 331 8,000  Level Los Angeles Center
Wed 01:54:37 PM 36.1078 -115.0858 237° Southwest 250 288 8,000  Level Los Angeles Center
Wed 01:54:55 PM 36.1000 -115.0894 201° Southwest 273 314 8,000  Level Los Angeles Center
Wed 01:55:31 PM 36.0592 -115.1100 202° Southwest 220 253 8,000  Level Los Angeles Center
Wed 01:55:58 PM 36.0431 -115.1158 196° South 236 272 8,000 -689 Level Los Angeles Center
Wed 01:56:32 PM 36.0022 -115.1367 202° Southwest 209 241 7,300 -968 Descending Los Angeles Center
Wed 01:57:00 PM 35.9894 -115.1417 198° South 218 251 7,000 -1,075 Descending Los Angeles Center
Wed 01:57:39 PM 35.9469 -115.1708 209° Southwest 199 229 6,100 -968 Descending Los Angeles Center
Wed 01:58:02 PM 35.9497 -115.1894 280° West 208 239 6,000 -984 Descending Los Angeles Center
Wed 01:58:40 PM 35.9669 -115.2228 303° West 176 203 5,100 -871 Descending Los Angeles Center
Wed 01:59:04 PM 35.9872 -115.2219 North 187 215 5,100 -980 Level Los Angeles Center
Wed 01:59:29 PM 36.0028 -115.2083 35° Northeast 165 190 4,300 6,677 Descending Los Angeles Center
Wed 02:00:06 PM 35.9342 -115.3028 228° Southwest 227 261 12,000 -1,250 Climbing Los Angeles Center
Wed 02:00:41 PM 36.0469 -115.1831 41° Northeast 137 158 2,800 -9,097 Descending Los Angeles Center
Wed 02:01:08 PM 36.0589 -115.1764 24° Northeast 135 155 2,600 -472 Descending Los Angeles Center
Wed 02:02:10 PM 36.0906 -115.1575 26° Northeast 127 146 2,100 -484 Descending Los Angeles Center

Login

Don't have an account? Register now (free) for customized features, flight alerts, and more!